Miniplon — FIDV — position and weather

sailwx.info

Track history (hours):
 
Tides and Currents Weather Stations Pressure Air Temp Water Temp Dewpoint Dewpoint Depression Visibility Wind Speed Wind Dir Waves Ship Positions

Miniplon

Last reported at 2016-Aug-27 04:07 UTC. Time now 2016-Aug-28 02:21 UTC.
Position N 45°53' W 001°44'.

Type: SAR. MMSI: 228024600.

Date/timePositionNaut miles runAvg speedWind from/ knotsBaromVisibWave heightAir tempDewpointWater temp
2016-Aug-27 04:07N 45°53' W 001°44'710.0
2016-Aug-27 03:24N 45°46' W 001°44'37 9.7
2016-Aug-26 23:32N 45°09' W 001°39'12 9.9
2016-Aug-26 22:21N 44°57' W 001°38'9 9.6
2016-Aug-26 21:26N 44°48' W 001°37'13 9.5
2016-Aug-26 20:07N 44°36' W 001°36'17 9.6
2016-Aug-26 18:23N 44°19' W 001°35'21 0.8
2016-Aug-25 15:33N 43°59' W 001°29'6 6.5
2016-Aug-25 14:33N 43°53' W 001°33'5 4.7
2016-Aug-25 13:33N 43°49' W 001°37'45 4.5
2016-Aug-25 03:31N 44°34' W 001°33'79 9.9
2016-Aug-24 19:33N 45°52' W 001°43'1010.1
2016-Aug-24 18:33N 46°02' W 001°44'20 9.7
2016-Aug-24 16:29N 46°22' W 001°46'8 8.1
2016-Aug-24 15:31N 46°30' W 001°47'0 0.2
2016-Aug-24 14:31N 46°30' W 001°47'0 0.0
2016-Aug-24 13:28N 46°30' W 001°47'0 0.0
2016-Aug-24 12:31N 46°30' W 001°47'0 0.0
2016-Aug-24 11:28N 46°30' W 001°47'0 0.0
2016-Aug-24 10:28N 46°30' W 001°47'0 0.0
2016-Aug-24 09:32N 46°30' W 001°47'0 0.0
2016-Aug-24 08:31N 46°30' W 001°47'0 0.0
2016-Aug-24 07:31N 46°30' W 001°47'0 0.0
2016-Aug-24 06:31N 46°30' W 001°47'0 0.0
2016-Aug-24 04:31N 46°30' W 001°47'0 0.0
2016-Aug-24 03:31N 46°30' W 001°47'0 0.0
2016-Aug-24 02:31N 46°30' W 001°47'0 0.0
2016-Aug-24 01:31N 46°30' W 001°47'0 0.0
2016-Aug-24 00:31N 46°30' W 001°47'0 0.0
2016-Aug-23 23:31N 46°30' W 001°47'0 0.0
2016-Aug-23 22:31N 46°30' W 001°47'0 0.0
2016-Aug-23 21:31N 46°30' W 001°47'0 0.0
2016-Aug-23 20:31N 46°30' W 001°47'0 0.0
2016-Aug-23 19:31N 46°30' W 001°47'0 0.0
2016-Aug-23 18:31N 46°30' W 001°47'0 0.0
2016-Aug-23 17:31N 46°30' W 001°47'0 0.0
2016-Aug-23 16:31N 46°30' W 001°47'0 0.0
2016-Aug-23 15:31N 46°30' W 001°47'0 0.0
2016-Aug-23 14:28N 46°30' W 001°47'0 0.0
2016-Aug-23 13:31N 46°30' W 001°47'0 0.0
2016-Aug-23 12:31N 46°30' W 001°47'5 5.4
2016-Aug-23 11:34N 46°32' W 001°54'19 4.3
2016-Aug-23 07:12N 46°46' W 002°12'6 8.9
2016-Aug-23 06:33N 46°44' W 002°20'11 0.5
2016-Aug-22 07:28N 46°47' W 002°05'3 3.6
2016-Aug-22 06:33N 46°44' W 002°03'9 9.4
2016-Aug-22 05:33N 46°36' W 001°56'9 8.9
2016-Aug-22 04:33N 46°29' W 001°48'  
2016-Aug-18 02:34N 46°29' W 001°49'  
Track history (hours):
 
Tides and Currents Weather Stations Pressure Air Temp Water Temp Dewpoint Dewpoint Depression Visibility Wind Speed Wind Dir Waves Ship Positions

Miniplon

Last reported at 2016-Aug-27 04:07 UTC. Time now 2016-Aug-28 02:21 UTC.
Position N 45°53' W 001°44'.

Type: SAR. MMSI: 228024600.

Date/timePositionNaut miles runAvg speedWind from/ knotsBaromVisibWave heightAir tempDewpointWater temp
2016-Aug-27 04:07N 45°53' W 001°44'710.0
2016-Aug-27 03:24N 45°46' W 001°44'37 9.7
2016-Aug-26 23:32N 45°09' W 001°39'12 9.9
2016-Aug-26 22:21N 44°57' W 001°38'9 9.6
2016-Aug-26 21:26N 44°48' W 001°37'13 9.5
2016-Aug-26 20:07N 44°36' W 001°36'17 9.6
2016-Aug-26 18:23N 44°19' W 001°35'21 0.8
2016-Aug-25 15:33N 43°59' W 001°29'6 6.5
2016-Aug-25 14:33N 43°53' W 001°33'5 4.7
2016-Aug-25 13:33N 43°49' W 001°37'45 4.5
2016-Aug-25 03:31N 44°34' W 001°33'79 9.9
2016-Aug-24 19:33N 45°52' W 001°43'1010.1
2016-Aug-24 18:33N 46°02' W 001°44'20 9.7
2016-Aug-24 16:29N 46°22' W 001°46'8 8.1
2016-Aug-24 15:31N 46°30' W 001°47'0 0.2
2016-Aug-24 14:31N 46°30' W 001°47'0 0.0
2016-Aug-24 13:28N 46°30' W 001°47'0 0.0
2016-Aug-24 12:31N 46°30' W 001°47'0 0.0
2016-Aug-24 11:28N 46°30' W 001°47'0 0.0
2016-Aug-24 10:28N 46°30' W 001°47'0 0.0
2016-Aug-24 09:32N 46°30' W 001°47'0 0.0
2016-Aug-24 08:31N 46°30' W 001°47'0 0.0
2016-Aug-24 07:31N 46°30' W 001°47'0 0.0
2016-Aug-24 06:31N 46°30' W 001°47'0 0.0
2016-Aug-24 04:31N 46°30' W 001°47'0 0.0
2016-Aug-24 03:31N 46°30' W 001°47'0 0.0
2016-Aug-24 02:31N 46°30' W 001°47'0 0.0
2016-Aug-24 01:31N 46°30' W 001°47'0 0.0
2016-Aug-24 00:31N 46°30' W 001°47'0 0.0
2016-Aug-23 23:31N 46°30' W 001°47'0 0.0
2016-Aug-23 22:31N 46°30' W 001°47'0 0.0
2016-Aug-23 21:31N 46°30' W 001°47'0 0.0
2016-Aug-23 20:31N 46°30' W 001°47'0 0.0
2016-Aug-23 19:31N 46°30' W 001°47'0 0.0
2016-Aug-23 18:31N 46°30' W 001°47'0 0.0
2016-Aug-23 17:31N 46°30' W 001°47'0 0.0
2016-Aug-23 16:31N 46°30' W 001°47'0 0.0
2016-Aug-23 15:31N 46°30' W 001°47'0 0.0
2016-Aug-23 14:28N 46°30' W 001°47'0 0.0
2016-Aug-23 13:31N 46°30' W 001°47'0 0.0
2016-Aug-23 12:31N 46°30' W 001°47'5 5.4
2016-Aug-23 11:34N 46°32' W 001°54'19 4.3
2016-Aug-23 07:12N 46°46' W 002°12'6 8.9
2016-Aug-23 06:33N 46°44' W 002°20'11 0.5
2016-Aug-22 07:28N 46°47' W 002°05'3 3.6
2016-Aug-22 06:33N 46°44' W 002°03'9 9.4
2016-Aug-22 05:33N 46°36' W 001°56'9 8.9
2016-Aug-22 04:33N 46°29' W 001°48'  
2016-Aug-18 02:34N 46°29' W 001°49'  

Dump ship's entire track history